sensor_id;sensor_type;location;lat;lon;timestamp;P1;durP1;ratioP1;P2;durP2;ratioP2
75516;SDS011;64097;52.548;13.406;2022-10-16T06:02:39;0.93;;;0.90;;
75516;SDS011;64097;52.548;13.406;2022-10-16T06:05:05;1.98;;;1.15;;
75516;SDS011;64097;52.548;13.406;2022-10-16T06:07:33;1.30;;;1.20;;
75516;SDS011;64097;52.548;13.406;2022-10-16T06:10:00;1.02;;;1.00;;
75516;SDS011;64097;52.548;13.406;2022-10-16T06:12:26;1.10;;;1.00;;
75516;SDS011;64097;52.548;13.406;2022-10-16T06:14:52;1.27;;;1.00;;
75516;SDS011;64097;52.548;13.406;2022-10-16T06:17:18;1.27;;;1.10;;
75516;SDS011;64097;52.548;13.406;2022-10-16T06:19:43;1.25;;;1.00;;
75516;SDS011;64097;52.548;13.406;2022-10-16T06:22:09;1.20;;;1.05;;
75516;SDS011;64097;52.548;13.406;2022-10-16T06:24:35;1.45;;;1.20;;
75516;SDS011;64097;52.548;13.406;2022-10-16T06:27:00;1.85;;;1.17;;
75516;SDS011;64097;52.548;13.406;2022-10-16T06:29:27;1.40;;;1.30;;
75516;SDS011;64097;52.548;13.406;2022-10-16T06:31:53;1.85;;;1.05;;
75516;SDS011;64097;52.548;13.406;2022-10-16T06:34:19;1.27;;;1.17;;
75516;SDS011;64097;52.548;13.406;2022-10-16T06:36:44;1.90;;;1.40;;
75516;SDS011;64097;52.548;13.406;2022-10-16T06:39:10;1.67;;;1.20;;
75516;SDS011;64097;52.548;13.406;2022-10-16T06:41:35;1.40;;;1.30;;
75516;SDS011;64097;52.548;13.406;2022-10-16T06:44:04;1.30;;;1.10;;
75516;SDS011;64097;52.548;13.406;2022-10-16T06:46:30;2.10;;;1.20;;
75516;SDS011;64097;52.548;13.406;2022-10-16T06:48:56;1.30;;;1.20;;
75516;SDS011;64097;52.548;13.406;2022-10-16T06:51:22;1.58;;;1.38;;
75516;SDS011;64097;52.548;13.406;2022-10-16T06:53:53;1.40;;;1.30;;
75516;SDS011;64097;52.548;13.406;2022-10-16T06:56:24;1.63;;;1.20;;
75516;SDS011;64097;52.548;13.406;2022-10-16T06:58:51;1.63;;;1.15;;
75516;SDS011;64097;52.548;13.406;2022-10-16T07:01:18;2.17;;;1.20;;
75516;SDS011;64097;52.548;13.406;2022-10-16T07:03:45;2.00;;;1.30;;
75516;SDS011;64097;52.548;13.406;2022-10-16T07:06:12;1.30;;;1.20;;
75516;SDS011;64097;52.548;13.406;2022-10-16T07:08:41;1.33;;;1.23;;
75516;SDS011;64097;52.548;13.406;2022-10-16T07:11:10;1.25;;;1.10;;
75516;SDS011;64097;52.548;13.406;2022-10-16T07:13:38;2.45;;;1.33;;
75516;SDS011;64097;52.548;13.406;2022-10-16T07:16:05;1.55;;;1.35;;
75516;SDS011;64097;52.548;13.406;2022-10-16T07:18:31;1.20;;;1.10;;
75516;SDS011;64097;52.548;13.406;2022-10-16T07:21:07;1.55;;;1.30;;
75516;SDS011;64097;52.548;13.406;2022-10-16T07:23:37;1.52;;;1.35;;
75516;SDS011;64097;52.548;13.406;2022-10-16T07:26:03;1.98;;;1.40;;
75516;SDS011;64097;52.548;13.406;2022-10-16T07:28:29;1.55;;;1.38;;
75516;SDS011;64097;52.548;13.406;2022-10-16T07:30:59;1.52;;;1.42;;
75516;SDS011;64097;52.548;13.406;2022-10-16T07:33:34;1.90;;;1.35;;
75516;SDS011;64097;52.548;13.406;2022-10-16T07:36:00;1.33;;;1.20;;
75516;SDS011;64097;52.548;13.406;2022-10-16T07:38:25;1.20;;;1.10;;
75516;SDS011;64097;52.548;13.406;2022-10-16T07:41:01;1.20;;;1.10;;
75516;SDS011;64097;52.548;13.406;2022-10-16T07:43:29;2.47;;;1.00;;
75516;SDS011;64097;52.548;13.406;2022-10-16T07:45:55;1.08;;;1.00;;
75516;SDS011;64097;52.548;13.406;2022-10-16T07:48:22;1.60;;;1.00;;
75516;SDS011;64097;52.548;13.406;2022-10-16T07:50:49;1.10;;;0.90;;
75516;SDS011;64097;52.548;13.406;2022-10-16T07:53:15;1.25;;;0.93;;
75516;SDS011;64097;52.548;13.406;2022-10-16T07:55:41;1.10;;;1.00;;
75516;SDS011;64097;52.548;13.406;2022-10-16T07:58:07;1.20;;;1.10;;
75516;SDS011;64097;52.548;13.406;2022-10-16T08:00:33;1.25;;;1.00;;
75516;SDS011;64097;52.548;13.406;2022-10-16T08:02:59;1.40;;;1.02;;
75516;SDS011;64097;52.548;13.406;2022-10-16T08:05:26;1.25;;;0.90;;
75516;SDS011;64097;52.548;13.406;2022-10-16T08:07:52;1.40;;;0.95;;
75516;SDS011;64097;52.548;13.406;2022-10-16T08:10:19;1.40;;;0.80;;
75516;SDS011;64097;52.548;13.406;2022-10-16T08:12:46;0.98;;;0.77;;
75516;SDS011;64097;52.548;13.406;2022-10-16T08:15:12;1.13;;;0.80;;
75516;SDS011;64097;52.548;13.406;2022-10-16T08:17:37;1.05;;;0.80;;
75516;SDS011;64097;52.548;13.406;2022-10-16T08:20:03;0.80;;;0.80;;
75516;SDS011;64097;52.548;13.406;2022-10-16T08:22:30;0.70;;;0.70;;
75516;SDS011;64097;52.548;13.406;2022-10-16T08:24:55;0.98;;;0.85;;
75516;SDS011;64097;52.548;13.406;2022-10-16T08:27:21;1.15;;;0.90;;
75516;SDS011;64097;52.548;13.406;2022-10-16T08:29:48;1.23;;;1.00;;
75516;SDS011;64097;52.548;13.406;2022-10-16T08:32:14;0.95;;;0.95;;
75516;SDS011;64097;52.548;13.406;2022-10-16T08:34:40;1.67;;;0.80;;
75516;SDS011;64097;52.548;13.406;2022-10-16T08:37:05;1.42;;;0.90;;
75516;SDS011;64097;52.548;13.406;2022-10-16T08:39:33;1.10;;;1.00;;
75516;SDS011;64097;52.548;13.406;2022-10-16T08:47:31;0.80;;;0.80;;
75516;SDS011;64097;52.548;13.406;2022-10-16T08:50:23;0.85;;;0.80;;
75516;SDS011;64097;52.548;13.406;2022-10-16T08:52:52;1.17;;;0.90;;
75516;SDS011;64097;52.548;13.406;2022-10-16T08:55:39;1.10;;;1.00;;
75516;SDS011;64097;52.548;13.406;2022-10-16T08:58:21;1.10;;;1.00;;
75516;SDS011;64097;52.548;13.406;2022-10-16T09:00:58;0.80;;;0.80;;
75516;SDS011;64097;52.548;13.406;2022-10-16T09:14:31;1.00;;;0.90;;
75516;SDS011;64097;52.548;13.406;2022-10-16T09:17:13;1.58;;;0.90;;
75516;SDS011;64097;52.548;13.406;2022-10-16T09:19:45;3.03;;;0.80;;
75516;SDS011;64097;52.548;13.406;2022-10-16T09:22:16;0.77;;;0.60;;
75516;SDS011;64097;52.548;13.406;2022-10-16T09:24:42;0.80;;;0.80;;
75516;SDS011;64097;52.548;13.406;2022-10-16T09:27:12;1.05;;;0.80;;
75516;SDS011;64097;52.548;13.406;2022-10-16T09:29:39;1.00;;;0.90;;
75516;SDS011;64097;52.548;13.406;2022-10-16T09:32:12;0.93;;;0.60;;
75516;SDS011;64097;52.548;13.406;2022-10-16T09:34:48;2.08;;;1.10;;
75516;SDS011;64097;52.548;13.406;2022-10-16T09:37:18;0.60;;;0.60;;
75516;SDS011;64097;52.548;13.406;2022-10-16T09:39:50;0.70;;;0.70;;
75516;SDS011;64097;52.548;13.406;2022-10-16T09:42:20;0.70;;;0.70;;
75516;SDS011;64097;52.548;13.406;2022-10-16T09:44:49;0.80;;;0.80;;
75516;SDS011;64097;52.548;13.406;2022-10-16T09:49:55;0.93;;;0.88;;
75516;SDS011;64097;52.548;13.406;2022-10-16T09:52:27;0.65;;;0.65;;
75516;SDS011;64097;52.548;13.406;2022-10-16T09:55:01;1.83;;;0.80;;
75516;SDS011;64097;52.548;13.406;2022-10-16T09:57:48;1.02;;;0.80;;
75516;SDS011;64097;52.548;13.406;2022-10-16T10:00:17;0.88;;;0.70;;
75516;SDS011;64097;52.548;13.406;2022-10-16T10:02:44;0.50;;;0.50;;
75516;SDS011;64097;52.548;13.406;2022-10-16T10:05:28;0.70;;;0.70;;
75516;SDS011;64097;52.548;13.406;2022-10-16T10:08:03;1.15;;;0.70;;
75516;SDS011;64097;52.548;13.406;2022-10-16T10:10:31;0.60;;;0.60;;
75516;SDS011;64097;52.548;13.406;2022-10-16T10:12:59;1.13;;;0.70;;
75516;SDS011;64097;52.548;13.406;2022-10-16T10:15:25;0.60;;;0.60;;
75516;SDS011;64097;52.548;13.406;2022-10-16T10:17:58;0.60;;;0.60;;
75516;SDS011;64097;52.548;13.406;2022-10-16T10:22:52;0.82;;;0.65;;
75516;SDS011;64097;52.548;13.406;2022-10-16T10:31:19;0.60;;;0.60;;
75516;SDS011;64097;52.548;13.406;2022-10-16T10:36:29;0.88;;;0.80;;
75516;SDS011;64097;52.548;13.406;2022-10-16T10:58:00;2.78;;;0.70;;
75516;SDS011;64097;52.548;13.406;2022-10-16T11:04:07;1.92;;;0.60;;
75516;SDS011;64097;52.548;13.406;2022-10-16T11:06:15;0.88;;;0.52;;
75516;SDS011;64097;52.548;13.406;2022-10-16T11:09:02;0.70;;;0.60;;
75516;SDS011;64097;52.548;13.406;2022-10-16T11:11:40;1.05;;;0.60;;
75516;SDS011;64097;52.548;13.406;2022-10-16T11:17:09;0.75;;;0.63;;
75516;SDS011;64097;52.548;13.406;2022-10-16T11:22:42;0.73;;;0.40;;
75516;SDS011;64097;52.548;13.406;2022-10-16T11:25:29;0.93;;;0.40;;
75516;SDS011;64097;52.548;13.406;2022-10-16T11:28:08;1.75;;;0.60;;
75516;SDS011;64097;52.548;13.406;2022-10-16T11:33:36;1.05;;;0.85;;
75516;SDS011;64097;52.548;13.406;2022-10-16T11:36:20;0.80;;;0.70;;
75516;SDS011;64097;52.548;13.406;2022-10-16T11:38:57;0.70;;;0.70;;
75516;SDS011;64097;52.548;13.406;2022-10-16T11:46:38;0.88;;;0.88;;
75516;SDS011;64097;52.548;13.406;2022-10-16T11:49:13;0.82;;;0.82;;
75516;SDS011;64097;52.548;13.406;2022-10-16T11:51:52;1.00;;;0.90;;
75516;SDS011;64097;52.548;13.406;2022-10-16T11:55:13;1.30;;;1.00;;
75516;SDS011;64097;52.548;13.406;2022-10-16T11:57:16;1.17;;;1.00;;
75516;SDS011;64097;52.548;13.406;2022-10-16T12:08:02;1.05;;;0.90;;
75516;SDS011;64097;52.548;13.406;2022-10-16T12:10:34;1.10;;;0.80;;
75516;SDS011;64097;52.548;13.406;2022-10-16T12:16:07;1.20;;;1.10;;
75516;SDS011;64097;52.548;13.406;2022-10-16T12:18:46;1.00;;;0.85;;
75516;SDS011;64097;52.548;13.406;2022-10-16T12:21:13;0.90;;;0.90;;
75516;SDS011;64097;52.548;13.406;2022-10-16T12:23:51;0.95;;;0.65;;
75516;SDS011;64097;52.548;13.406;2022-10-16T12:26:29;0.85;;;0.70;;
75516;SDS011;64097;52.548;13.406;2022-10-16T12:29:22;0.95;;;0.60;;
75516;SDS011;64097;52.548;13.406;2022-10-16T12:32:04;0.68;;;0.68;;
75516;SDS011;64097;52.548;13.406;2022-10-16T12:34:43;0.80;;;0.50;;
75516;SDS011;64097;52.548;13.406;2022-10-16T12:37:11;0.50;;;0.40;;
75516;SDS011;64097;52.548;13.406;2022-10-16T12:39:37;0.85;;;0.63;;
75516;SDS011;64097;52.548;13.406;2022-10-16T12:42:04;1.00;;;0.55;;
75516;SDS011;64097;52.548;13.406;2022-10-16T12:44:44;1.60;;;0.50;;
75516;SDS011;64097;52.548;13.406;2022-10-16T12:49:55;0.98;;;0.50;;
75516;SDS011;64097;52.548;13.406;2022-10-16T12:52:28;0.80;;;0.50;;
75516;SDS011;64097;52.548;13.406;2022-10-16T12:54:57;1.20;;;0.40;;
75516;SDS011;64097;52.548;13.406;2022-10-16T13:14:15;0.80;;;0.50;;
75516;SDS011;64097;52.548;13.406;2022-10-16T13:17:11;0.73;;;0.50;;
75516;SDS011;64097;52.548;13.406;2022-10-16T13:28:11;1.13;;;0.60;;
75516;SDS011;64097;52.548;13.406;2022-10-16T13:33:16;2.35;;;0.55;;
75516;SDS011;64097;52.548;13.406;2022-10-16T13:35:53;0.57;;;0.50;;
75516;SDS011;64097;52.548;13.406;2022-10-16T13:38:25;2.03;;;0.60;;
75516;SDS011;64097;52.548;13.406;2022-10-16T13:43:23;0.60;;;0.50;;
75516;SDS011;64097;52.548;13.406;2022-10-16T13:45:57;1.40;;;0.70;;
75516;SDS011;64097;52.548;13.406;2022-10-16T13:48:25;0.50;;;0.50;;
75516;SDS011;64097;52.548;13.406;2022-10-16T13:51:01;1.05;;;0.50;;
75516;SDS011;64097;52.548;13.406;2022-10-16T13:53:36;0.55;;;0.50;;
75516;SDS011;64097;52.548;13.406;2022-10-16T13:56:03;0.77;;;0.47;;
75516;SDS011;64097;52.548;13.406;2022-10-16T13:58:31;1.05;;;0.40;;
